createdAt,value
2017-04-09T00:00:12.560Z,9.60
2017-04-09T00:01:13.251Z,9.60
2017-04-09T00:02:13.304Z,9.80
2017-04-09T00:03:14.014Z,9.50
2017-04-09T00:04:14.802Z,9.60
2017-04-09T00:05:14.850Z,9.70
2017-04-09T00:06:15.549Z,9.70
2017-04-09T00:07:15.494Z,9.50
2017-04-09T00:08:15.521Z,9.30
2017-04-09T00:09:15.510Z,9.40
2017-04-09T00:10:15.514Z,9.30
2017-04-09T00:11:15.484Z,9.30
2017-04-09T00:12:16.214Z,9.30
2017-04-09T00:13:16.963Z,9.30
2017-04-09T00:14:16.967Z,9.20
2017-04-09T00:15:17.598Z,9.30
2017-04-09T00:16:17.534Z,9.30
2017-04-09T00:17:17.515Z,9.30
2017-04-09T00:18:17.525Z,9.30
2017-04-09T00:19:17.487Z,9.10
2017-04-09T00:20:18.213Z,9.40
2017-04-09T00:21:18.910Z,9.40
2017-04-09T00:22:18.862Z,9.30
2017-04-09T00:23:18.845Z,9.20
2017-04-09T00:24:20.010Z,9.40
2017-04-09T00:25:19.985Z,9.30
2017-04-09T00:26:20.704Z,9.40
2017-04-09T00:27:21.377Z,9.20
2017-04-09T00:28:21.293Z,8.80
2017-04-09T00:29:21.324Z,9.30
2017-04-09T00:30:21.276Z,8.80
2017-04-09T00:31:21.224Z,9.10
2017-04-09T00:32:21.167Z,8.80
2017-04-09T00:33:21.119Z,8.90
2017-04-09T00:34:21.093Z,9.00
2017-04-09T00:35:21.146Z,8.90
2017-04-09T00:36:21.116Z,8.70
2017-04-09T00:37:21.062Z,8.60
2017-04-09T00:38:21.007Z,8.80
2017-04-09T00:39:20.983Z,8.80
2017-04-09T00:40:20.908Z,8.80
2017-04-09T00:41:21.709Z,8.80
2017-04-09T00:42:21.725Z,8.70
2017-04-09T00:44:26.926Z,8.80
2017-04-09T00:45:26.924Z,8.50
2017-04-09T00:46:26.865Z,8.80
2017-04-09T00:47:26.812Z,8.70
2017-04-09T00:48:26.895Z,8.70
2017-04-09T00:49:27.585Z,8.60
2017-04-09T00:50:27.547Z,8.70
2017-04-09T00:51:27.501Z,8.80
2017-04-09T00:52:27.479Z,8.60
2017-04-09T00:53:27.402Z,8.80
2017-04-09T00:54:27.391Z,8.80
2017-04-09T00:55:27.394Z,8.80
2017-04-09T00:56:27.358Z,8.70
2017-04-09T00:57:28.073Z,8.60
2017-04-09T00:58:28.045Z,9.20
2017-04-09T00:59:28.004Z,9.00
2017-04-09T01:00:28.000Z,9.00
2017-04-09T01:01:28.748Z,9.10
2017-04-09T01:02:28.689Z,9.30
2017-04-09T01:03:28.654Z,9.00
2017-04-09T01:04:28.582Z,8.90
2017-04-09T01:05:28.628Z,8.80
2017-04-09T01:06:28.641Z,9.10
2017-04-09T01:07:29.353Z,9.10
2017-04-09T01:08:29.306Z,9.10
2017-04-09T01:09:29.274Z,9.10
2017-04-09T01:10:29.384Z,9.10
2017-04-09T01:11:29.392Z,9.10
2017-04-09T01:12:29.319Z,9.20
2017-04-09T01:13:29.254Z,8.90
2017-04-09T01:14:29.232Z,9.10
2017-04-09T01:15:29.957Z,9.10
2017-04-09T01:16:29.964Z,8.80
2017-04-09T01:17:29.979Z,8.80
2017-04-09T01:18:30.657Z,9.20
2017-04-09T01:19:30.615Z,9.00
2017-04-09T01:20:30.649Z,8.80
2017-04-09T01:21:30.673Z,8.70
2017-04-09T01:22:30.649Z,9.00
2017-04-09T01:23:30.907Z,8.80
2017-04-09T01:24:31.594Z,8.60
2017-04-09T01:25:31.615Z,8.70
2017-04-09T01:26:31.559Z,8.80
2017-04-09T01:27:31.574Z,8.50
2017-04-09T01:28:31.541Z,8.70
2017-04-09T01:30:31.648Z,8.60
2017-04-09T01:31:31.632Z,8.50
2017-04-09T01:32:31.789Z,8.60
2017-04-09T01:34:32.572Z,8.40
2017-04-09T01:35:32.521Z,8.50
2017-04-09T01:37:33.327Z,7.90
2017-04-09T01:38:33.391Z,8.10
2017-04-09T01:39:33.395Z,8.10
2017-04-09T01:40:33.442Z,7.80
2017-04-09T01:41:34.024Z,8.10
2017-04-09T01:42:34.705Z,7.70
2017-04-09T01:43:34.690Z,7.50
2017-04-09T01:44:34.706Z,7.70
2017-04-09T01:45:34.746Z,7.40
2017-04-09T01:46:35.529Z,7.40
2017-04-09T01:47:35.521Z,7.50
2017-04-09T01:48:35.513Z,7.70
2017-04-09T01:49:35.600Z,7.40
2017-04-09T01:50:36.322Z,7.50
2017-04-09T01:51:37.009Z,7.30
2017-04-09T01:52:36.972Z,7.40
2017-04-09T01:53:36.966Z,7.40
2017-04-09T01:54:37.676Z,7.30
2017-04-09T01:55:38.439Z,7.50
2017-04-09T01:56:38.371Z,7.40
2017-04-09T01:57:38.367Z,7.40
2017-04-09T01:58:38.333Z,7.40
2017-04-09T01:59:38.306Z,7.50
2017-04-09T02:00:38.298Z,7.40
2017-04-09T02:01:38.330Z,7.70
2017-04-09T02:02:39.080Z,7.40
2017-04-09T02:03:39.811Z,7.40
2017-04-09T02:04:39.760Z,7.10
2017-04-09T02:05:39.757Z,7.20
2017-04-09T02:06:39.728Z,7.10
2017-04-09T02:07:39.725Z,7.70
2017-04-09T02:08:40.455Z,7.50
2017-04-09T02:09:40.391Z,7.60
2017-04-09T02:10:40.334Z,7.60
2017-04-09T02:12:40.375Z,7.80
2017-04-09T02:13:40.310Z,7.40
2017-04-09T02:14:40.253Z,7.50
2017-04-09T02:15:40.258Z,7.40
2017-04-09T02:16:40.270Z,7.40
2017-04-09T02:18:40.402Z,7.40
2017-04-09T02:19:41.106Z,7.50
2017-04-09T02:21:41.326Z,7.60
2017-04-09T02:22:42.100Z,7.40
2017-04-09T02:23:42.037Z,7.30
2017-04-09T02:24:41.974Z,7.40
2017-04-09T02:25:42.673Z,7.30
2017-04-09T02:26:42.642Z,7.70
2017-04-09T02:27:42.590Z,7.60
2017-04-09T02:28:42.669Z,7.30
2017-04-09T02:29:42.639Z,7.30
2017-04-09T02:30:42.698Z,7.50
2017-04-09T02:31:42.626Z,7.60
2017-04-09T02:33:42.705Z,7.10
2017-04-09T02:34:42.656Z,7.10
2017-04-09T02:35:43.461Z,7.00
2017-04-09T02:37:43.679Z,7.20
2017-04-09T02:39:43.742Z,7.30
2017-04-09T02:40:43.677Z,7.00
2017-04-09T02:41:43.626Z,6.70
2017-04-09T02:42:44.402Z,6.80
2017-04-09T02:43:44.375Z,6.90
2017-04-09T02:44:44.313Z,6.70
2017-04-09T02:45:44.294Z,6.60
2017-04-09T02:46:44.285Z,6.50
2017-04-09T02:47:44.949Z,6.80
2017-04-09T02:48:44.975Z,6.60
2017-04-09T02:49:45.498Z,6.40
2017-04-09T02:50:45.520Z,6.60
2017-04-09T02:51:45.446Z,6.40
2017-04-09T02:52:46.124Z,6.60
2017-04-09T02:53:46.227Z,6.40
2017-04-09T02:54:46.182Z,6.40
2017-04-09T02:55:46.907Z,6.50
2017-04-09T02:56:47.627Z,6.50
2017-04-09T02:57:48.325Z,6.40
2017-04-09T02:58:49.015Z,6.50
2017-04-09T02:59:48.927Z,6.30
2017-04-09T03:00:48.822Z,6.90
2017-04-09T03:01:48.726Z,6.80
2017-04-09T03:02:48.636Z,6.90
2017-04-09T03:03:48.537Z,6.70
2017-04-09T03:04:48.456Z,6.90
2017-04-09T03:05:48.347Z,7.00
2017-04-09T03:06:48.264Z,7.10
2017-04-09T03:07:48.182Z,7.10
2017-04-09T03:09:48.910Z,7.10
2017-04-09T03:10:48.817Z,7.30
2017-04-09T03:11:48.725Z,7.10
2017-04-09T03:13:48.726Z,7.40
2017-04-09T03:14:48.643Z,7.50
2017-04-09T03:15:49.342Z,7.50
2017-04-09T03:16:49.234Z,7.40
2017-04-09T03:17:49.206Z,7.40
2017-04-09T03:18:49.182Z,7.50
2017-04-09T03:19:49.830Z,7.40
2017-04-09T03:20:49.770Z,7.40
2017-04-09T03:21:49.661Z,7.30
2017-04-09T03:22:49.566Z,7.90
2017-04-09T03:23:49.468Z,7.70
2017-04-09T03:24:49.373Z,7.90
2017-04-09T03:25:49.307Z,8.00
2017-04-09T03:26:49.212Z,7.80
2017-04-09T03:27:49.127Z,7.70
2017-04-09T03:28:49.073Z,7.90
2017-04-09T03:29:49.709Z,7.80
2017-04-09T03:30:49.632Z,8.10
2017-04-09T03:31:49.529Z,7.80
2017-04-09T03:32:49.455Z,7.80
2017-04-09T03:33:49.349Z,7.90
2017-04-09T03:34:49.267Z,8.10
2017-04-09T03:35:49.207Z,7.70
2017-04-09T03:36:49.927Z,8.00
2017-04-09T03:37:49.888Z,7.70
2017-04-09T03:38:49.884Z,7.70
2017-04-09T03:39:49.857Z,7.70
2017-04-09T03:40:50.569Z,7.70
2017-04-09T03:41:51.220Z,7.50
2017-04-09T03:42:51.161Z,7.60
2017-04-09T03:43:51.095Z,7.40
2017-04-09T03:44:51.060Z,7.40
2017-04-09T03:45:51.807Z,7.60
2017-04-09T03:48:51.972Z,7.70
2017-04-09T03:49:51.901Z,7.60
2017-04-09T03:50:51.888Z,7.40
2017-04-09T03:51:51.852Z,7.70
2017-04-09T03:52:51.847Z,7.40
2017-04-09T03:53:51.767Z,7.40
2017-04-09T03:54:51.775Z,7.30
2017-04-09T03:55:51.727Z,7.50
2017-04-09T03:56:51.693Z,7.40
2017-04-09T03:58:51.764Z,7.40
2017-04-09T03:59:51.704Z,7.30
2017-04-09T04:00:51.641Z,7.60
2017-04-09T04:01:52.315Z,7.30
2017-04-09T04:02:52.224Z,7.40
2017-04-09T04:03:52.164Z,7.40
2017-04-09T04:04:52.797Z,7.60
2017-04-09T04:05:52.719Z,7.60
2017-04-09T04:06:52.655Z,7.30
2017-04-09T04:07:52.559Z,7.40
2017-04-09T04:08:52.477Z,7.40
2017-04-09T04:09:52.405Z,7.50
2017-04-09T04:10:53.069Z,7.50
2017-04-09T04:11:53.009Z,7.40
2017-04-09T04:12:52.934Z,7.40
2017-04-09T04:13:53.596Z,7.50
2017-04-09T04:14:53.528Z,7.50
2017-04-09T04:15:53.439Z,7.20
2017-04-09T04:16:53.373Z,7.20
2017-04-09T04:17:54.027Z,6.90
2017-04-09T04:18:53.965Z,6.90
2017-04-09T04:19:53.864Z,6.70
2017-04-09T04:20:53.787Z,6.70
2017-04-09T04:21:53.749Z,6.80
2017-04-09T04:22:53.652Z,6.80
2017-04-09T04:23:53.637Z,6.70
2017-04-09T04:24:54.283Z,6.80
2017-04-09T04:25:54.191Z,6.80
2017-04-09T04:26:54.151Z,7.00
2017-04-09T04:27:54.790Z,7.00
2017-04-09T04:28:55.455Z,7.00
2017-04-09T04:29:55.369Z,6.70
2017-04-09T04:30:55.659Z,7.00
2017-04-09T04:31:55.599Z,6.80
2017-04-09T04:32:55.504Z,6.80
2017-04-09T04:33:55.410Z,6.40
2017-04-09T04:34:55.307Z,6.80
2017-04-09T04:35:55.239Z,6.60
2017-04-09T04:36:55.954Z,6.70
2017-04-09T04:37:55.868Z,6.80
2017-04-09T04:38:56.523Z,6.80
2017-04-09T04:39:56.445Z,6.90
2017-04-09T04:40:56.378Z,7.00
2017-04-09T04:41:56.307Z,6.90
2017-04-09T04:42:56.969Z,6.70
2017-04-09T04:43:56.925Z,6.60
2017-04-09T04:44:57.585Z,6.50
2017-04-09T04:45:57.495Z,6.80
2017-04-09T04:46:57.432Z,6.90
2017-04-09T04:47:57.401Z,7.00
2017-04-09T04:48:57.351Z,7.10
2017-04-09T04:49:57.254Z,7.20
2017-04-09T04:50:57.159Z,7.00
2017-04-09T04:51:57.104Z,7.00
2017-04-09T04:52:57.049Z,7.10
2017-04-09T04:53:56.976Z,6.70
2017-04-09T04:55:56.988Z,6.80
2017-04-09T04:56:56.924Z,6.90
2017-04-09T04:57:57.609Z,6.80
2017-04-09T04:58:57.509Z,6.70
2017-04-09T04:59:57.484Z,6.80
2017-04-09T05:00:57.431Z,6.50
2017-04-09T05:01:57.369Z,6.50
2017-04-09T05:02:58.152Z,6.60
2017-04-09T05:03:58.160Z,6.50
2017-04-09T05:04:58.098Z,6.40
2017-04-09T05:05:58.872Z,6.50
2017-04-09T05:06:58.804Z,6.20
2017-04-09T05:07:58.778Z,6.50
2017-04-09T05:08:58.720Z,6.50
2017-04-09T05:09:58.679Z,6.70
2017-04-09T05:10:58.639Z,6.70
2017-04-09T05:12:59.536Z,6.90
2017-04-09T05:13:59.491Z,6.60
2017-04-09T05:15:00.164Z,6.80
2017-04-09T05:16:00.128Z,6.80
2017-04-09T05:17:00.194Z,6.70
2017-04-09T05:18:00.168Z,6.80
2017-04-09T05:19:00.099Z,6.90
2017-04-09T05:20:00.028Z,7.00
2017-04-09T05:22:00.140Z,7.10
2017-04-09T05:24:00.284Z,7.00
2017-04-09T05:25:00.939Z,7.30
2017-04-09T05:26:00.872Z,7.50
2017-04-09T05:27:00.805Z,7.70
2017-04-09T05:28:01.514Z,7.40
2017-04-09T05:29:02.280Z,7.60
2017-04-09T05:30:02.908Z,7.40
2017-04-09T05:31:02.827Z,7.30
2017-04-09T05:32:02.773Z,7.40
2017-04-09T05:33:03.503Z,7.30
2017-04-09T05:34:04.196Z,7.40
2017-04-09T05:35:04.223Z,7.40
2017-04-09T05:37:04.256Z,7.00
2017-04-09T05:38:05.019Z,7.00
2017-04-09T05:39:05.540Z,7.00
2017-04-09T05:40:05.451Z,7.00
2017-04-09T05:41:05.404Z,7.10
2017-04-09T05:42:06.078Z,7.10
2017-04-09T05:43:06.084Z,6.70
2017-04-09T05:44:06.021Z,6.70
2017-04-09T05:45:06.016Z,6.80
2017-04-09T05:46:05.960Z,6.70
2017-04-09T05:47:06.615Z,6.70
2017-04-09T05:48:06.574Z,6.80
2017-04-09T05:49:07.255Z,6.80
2017-04-09T05:50:07.620Z,6.60
2017-04-09T05:51:08.312Z,6.50
2017-04-09T05:52:08.309Z,6.50
2017-04-09T05:53:08.267Z,6.90
2017-04-09T05:54:08.336Z,6.90
2017-04-09T05:55:08.260Z,6.70
2017-04-09T05:56:08.961Z,6.70
2017-04-09T05:57:08.908Z,6.60
2017-04-09T05:58:09.013Z,6.80
2017-04-09T05:59:08.948Z,6.90
2017-04-09T06:00:08.859Z,6.80
2017-04-09T06:01:08.764Z,6.80
2017-04-09T06:02:08.672Z,6.60
2017-04-09T06:03:08.602Z,6.70
2017-04-09T06:04:08.534Z,6.80
2017-04-09T06:05:09.179Z,6.60
2017-04-09T06:06:09.062Z,7.10
2017-04-09T06:07:09.688Z,7.10
2017-04-09T06:08:09.609Z,7.00
2017-04-09T06:09:09.544Z,7.00
2017-04-09T06:10:09.451Z,7.10
2017-04-09T06:11:10.376Z,7.20
2017-04-09T06:12:10.296Z,7.20
2017-04-09T06:13:10.190Z,7.00
2017-04-09T06:14:10.171Z,7.10
2017-04-09T06:15:10.074Z,7.10
2017-04-09T06:16:10.000Z,7.10
2017-04-09T06:17:09.938Z,7.10
2017-04-09T06:18:10.609Z,7.40
2017-04-09T06:19:10.604Z,7.40
2017-04-09T06:20:10.553Z,7.40
2017-04-09T06:21:10.532Z,7.60
2017-04-09T06:22:10.440Z,7.40
2017-04-09T06:23:10.406Z,7.40
2017-04-09T06:24:11.115Z,7.60
2017-04-09T06:25:11.840Z,7.60
2017-04-09T06:26:12.492Z,7.70
2017-04-09T06:27:12.447Z,7.60
2017-04-09T06:28:12.362Z,7.90
2017-04-09T06:30:13.120Z,7.80
2017-04-09T06:31:13.068Z,7.90
2017-04-09T06:32:12.968Z,8.00
2017-04-09T06:33:12.899Z,7.80
2017-04-09T06:34:12.862Z,7.70
2017-04-09T06:35:12.806Z,7.80
2017-04-09T06:36:12.720Z,8.10
2017-04-09T06:37:14.875Z,8.10
2017-04-09T06:39:14.924Z,8.10
2017-04-09T06:40:14.852Z,8.30
2017-04-09T06:41:14.792Z,8.20
2017-04-09T06:42:14.716Z,8.10
2017-04-09T06:43:15.388Z,8.10
2017-04-09T06:44:15.314Z,8.70
2017-04-09T06:45:15.223Z,8.50
2017-04-09T06:46:15.128Z,8.40
2017-04-09T06:47:15.039Z,8.60
2017-04-09T06:48:14.944Z,8.70
2017-04-09T06:49:14.873Z,8.50
2017-04-09T06:50:15.539Z,8.60
2017-04-09T06:51:15.447Z,8.50
2017-04-09T06:52:15.410Z,8.70
2017-04-09T06:53:16.070Z,8.90
2017-04-09T06:54:15.996Z,8.80
2017-04-09T06:55:15.939Z,9.10
2017-04-09T06:56:16.583Z,8.80
2017-04-09T06:57:16.628Z,9.00
2017-04-09T06:58:16.532Z,9.20
2017-04-09T06:59:16.437Z,9.30
2017-04-09T07:00:16.408Z,9.40
2017-04-09T07:01:16.349Z,9.50
2017-04-09T07:02:16.264Z,9.50
2017-04-09T07:04:16.278Z,9.50
2017-04-09T07:05:16.209Z,9.50
2017-04-09T07:06:16.897Z,9.80
2017-04-09T07:07:16.820Z,9.90
2017-04-09T07:08:17.525Z,9.80
2017-04-09T07:09:17.433Z,9.80
2017-04-09T07:10:17.352Z,10.00
2017-04-09T07:11:18.047Z,10.40
2017-04-09T07:12:18.124Z,10.30
2017-04-09T07:13:18.058Z,10.50
2017-04-09T07:14:17.990Z,10.50
2017-04-09T07:16:18.068Z,10.80
2017-04-09T07:17:18.007Z,11.20
2017-04-09T07:19:18.025Z,11.60
2017-04-09T07:21:18.061Z,11.90
2017-04-09T07:22:18.775Z,12.30
2017-04-09T07:23:19.451Z,12.50
2017-04-09T07:24:19.354Z,12.50
2017-04-09T07:25:19.289Z,13.00
2017-04-09T07:26:19.251Z,13.00
2017-04-09T07:27:19.207Z,13.40
2017-04-09T07:28:19.900Z,13.40
2017-04-09T07:29:19.818Z,13.90
2017-04-09T07:30:19.736Z,13.90
2017-04-09T07:31:20.403Z,14.50
2017-04-09T07:32:20.397Z,14.60
2017-04-09T07:33:20.357Z,14.90
2017-04-09T07:34:20.274Z,15.10
2017-04-09T07:35:20.956Z,15.20
2017-04-09T07:36:20.867Z,15.20
2017-04-09T07:37:20.811Z,15.50
2017-04-09T07:38:21.558Z,15.70
2017-04-09T07:39:22.183Z,16.00
2017-04-09T07:40:22.124Z,15.80
2017-04-09T07:41:22.146Z,16.10
2017-04-09T07:42:22.068Z,16.10
2017-04-09T07:43:22.764Z,16.10
2017-04-09T07:44:22.678Z,16.10
2017-04-09T07:45:22.598Z,16.20
2017-04-09T07:46:22.546Z,16.30
2017-04-09T07:47:22.641Z,16.90
2017-04-09T07:48:23.332Z,16.80
2017-04-09T07:49:23.290Z,16.80
2017-04-09T07:50:23.211Z,17.20
2017-04-09T07:51:23.110Z,17.60
2017-04-09T07:52:23.007Z,17.50
2017-04-09T07:53:22.936Z,18.00
2017-04-09T07:54:22.873Z,17.80
2017-04-09T07:55:23.562Z,18.30
2017-04-09T07:56:23.483Z,18.20
2017-04-09T07:57:23.399Z,18.40
2017-04-09T07:58:24.073Z,18.50
2017-04-09T07:59:24.033Z,18.80
2017-04-09T08:00:24.726Z,19.20
2017-04-09T08:01:24.621Z,19.50
2017-04-09T08:02:24.538Z,19.70
2017-04-09T08:03:24.510Z,19.80
2017-04-09T08:04:24.407Z,19.70
2017-04-09T08:05:24.345Z,19.90
2017-04-09T08:06:24.362Z,19.90
2017-04-09T08:07:24.369Z,20.10
2017-04-09T08:08:24.828Z,20.30
2017-04-09T08:09:24.748Z,20.40
2017-04-09T08:10:24.652Z,20.80
2017-04-09T08:11:24.642Z,20.60
2017-04-09T08:12:25.307Z,20.60
2017-04-09T08:13:25.228Z,20.70
2017-04-09T08:14:25.150Z,20.80
2017-04-09T08:16:25.141Z,21.00
2017-04-09T08:17:25.096Z,21.20
2017-04-09T08:18:25.092Z,21.50
2017-04-09T08:19:25.811Z,21.60
2017-04-09T08:20:26.447Z,21.80
2017-04-09T08:21:26.356Z,22.30
2017-04-09T08:22:26.301Z,22.50
2017-04-09T08:23:26.233Z,22.20
2017-04-09T08:24:26.872Z,22.40
2017-04-09T08:25:27.540Z,22.70
2017-04-09T08:26:27.433Z,22.80
2017-04-09T08:27:27.392Z,23.00
2017-04-09T08:28:28.083Z,23.20
2017-04-09T08:29:27.997Z,23.20
2017-04-09T08:30:28.083Z,23.10
2017-04-09T08:31:27.988Z,23.10
2017-04-09T08:32:27.955Z,23.10
2017-04-09T08:33:28.612Z,23.00
2017-04-09T08:34:28.508Z,23.10
2017-04-09T08:35:28.413Z,23.10
2017-04-09T08:36:28.333Z,23.00
2017-04-09T08:37:28.241Z,23.10
2017-04-09T08:38:28.200Z,23.00
2017-04-09T08:39:28.844Z,23.00
2017-04-09T08:40:28.795Z,23.10
2017-04-09T08:41:29.927Z,23.10
2017-04-09T08:42:29.845Z,23.40
2017-04-09T08:43:30.547Z,23.40
2017-04-09T08:44:30.470Z,23.10
2017-04-09T08:45:31.124Z,22.90
2017-04-09T08:46:31.040Z,23.00
2017-04-09T08:47:30.934Z,23.30
2017-04-09T08:48:30.896Z,23.70
2017-04-09T08:49:30.813Z,24.00
2017-04-09T08:50:31.496Z,24.30
2017-04-09T08:51:31.433Z,24.40
2017-04-09T08:52:31.447Z,24.50
2017-04-09T08:53:32.186Z,24.30
2017-04-09T08:54:32.858Z,24.40
2017-04-09T08:55:32.780Z,24.50
2017-04-09T08:56:32.722Z,24.80
2017-04-09T08:57:33.612Z,24.90
2017-04-09T08:58:33.567Z,24.90
2017-04-09T08:59:33.488Z,25.00
2017-04-09T09:00:33.440Z,25.10
2017-04-09T09:01:33.365Z,25.50
2017-04-09T09:02:33.304Z,25.70
2017-04-09T09:03:33.248Z,26.00
2017-04-09T09:04:33.212Z,26.40
2017-04-09T09:05:33.127Z,25.70
2017-04-09T09:06:33.019Z,26.00
2017-04-09T09:07:32.966Z,26.10
2017-04-09T09:08:33.149Z,26.30
2017-04-09T09:09:33.064Z,26.50
2017-04-09T09:10:42.730Z,26.60
2017-04-09T09:11:42.736Z,27.10
2017-04-09T09:12:43.434Z,27.50
2017-04-09T09:13:43.377Z,27.70
2017-04-09T09:14:44.036Z,27.90
2017-04-09T09:15:43.940Z,28.30
2017-04-09T09:16:43.901Z,28.50
2017-04-09T09:17:44.568Z,28.20
2017-04-09T09:18:44.486Z,27.70
2017-04-09T09:19:44.442Z,27.10
2017-04-09T09:20:45.104Z,26.60
2017-04-09T09:21:45.021Z,26.60
2017-04-09T09:22:48.990Z,26.30
2017-04-09T09:23:48.956Z,26.40
2017-04-09T09:24:49.607Z,26.60
2017-04-09T09:25:49.516Z,26.80
2017-04-09T09:26:49.409Z,27.30
2017-04-09T09:27:49.315Z,27.60
2017-04-09T09:28:49.229Z,27.80
2017-04-09T09:29:49.168Z,28.00
2017-04-09T09:30:49.060Z,28.10
2017-04-09T09:31:49.038Z,28.10
2017-04-09T09:32:48.949Z,28.70
2017-04-09T09:33:48.904Z,28.90
2017-04-09T09:34:48.813Z,29.40
2017-04-09T09:35:48.776Z,28.90
2017-04-09T09:36:48.871Z,27.80
2017-04-09T09:37:49.515Z,27.60
2017-04-09T09:38:49.486Z,27.80
2017-04-09T09:39:50.135Z,28.30
2017-04-09T09:40:50.224Z,28.60
2017-04-09T09:41:50.886Z,29.00
2017-04-09T09:42:51.020Z,29.20
2017-04-09T09:43:56.651Z,29.40
2017-04-09T09:44:56.560Z,29.40
2017-04-09T09:45:56.468Z,29.60
2017-04-09T09:46:56.368Z,29.70
2017-04-09T09:47:56.302Z,29.70
2017-04-09T09:48:56.968Z,29.50
2017-04-09T09:49:56.902Z,29.60
2017-04-09T09:50:56.810Z,30.10
2017-04-09T09:51:56.724Z,30.10
2017-04-09T09:52:57.378Z,30.30
2017-04-09T09:53:57.339Z,30.70
2017-04-09T09:54:57.277Z,30.70
2017-04-09T09:55:57.203Z,30.50
2017-04-09T09:56:57.149Z,30.30
2017-04-09T09:57:57.576Z,30.30
2017-04-09T09:58:58.276Z,30.60
2017-04-09T09:59:58.255Z,30.50
2017-04-09T10:00:58.189Z,31.10
2017-04-09T10:01:58.128Z,31.80
2017-04-09T10:02:58.833Z,32.30
2017-04-09T10:03:59.255Z,32.50
2017-04-09T10:04:59.203Z,32.40
2017-04-09T10:05:59.161Z,32.30
2017-04-09T10:06:59.104Z,32.30
2017-04-09T10:07:59.029Z,31.90
2017-04-09T10:08:58.985Z,31.80
2017-04-09T10:10:00.431Z,31.70
2017-04-09T10:11:01.180Z,31.60
2017-04-09T10:12:01.117Z,31.60
2017-04-09T10:13:01.068Z,31.10
2017-04-09T10:14:01.804Z,31.30
2017-04-09T10:15:01.727Z,31.50
2017-04-09T10:16:01.663Z,31.60
2017-04-09T10:17:01.592Z,31.70
2017-04-09T10:19:02.438Z,32.00
2017-04-09T10:20:03.130Z,32.20
2017-04-09T10:21:03.144Z,32.10
2017-04-09T10:22:03.108Z,32.30
2017-04-09T10:23:03.089Z,31.70
2017-04-09T10:24:03.820Z,31.90
2017-04-09T10:25:03.826Z,32.00
2017-04-09T10:26:04.636Z,31.80
2017-04-09T10:27:04.553Z,31.90
2017-04-09T10:28:04.515Z,32.20
2017-04-09T10:29:04.687Z,32.90
2017-04-09T10:30:04.659Z,33.40
2017-04-09T10:31:05.320Z,33.60
2017-04-09T10:32:05.234Z,33.80
2017-04-09T10:33:05.186Z,33.60
2017-04-09T10:34:05.974Z,33.70
2017-04-09T10:35:05.901Z,33.90
2017-04-09T10:37:06.063Z,34.50
2017-04-09T10:38:06.025Z,34.60
2017-04-09T10:39:05.983Z,34.80
2017-04-09T10:40:05.917Z,34.80
2017-04-09T10:41:05.913Z,35.00
2017-04-09T10:42:05.870Z,35.10
2017-04-09T10:43:06.552Z,35.10
2017-04-09T10:44:06.558Z,35.50
2017-04-09T10:45:06.508Z,35.60
2017-04-09T10:46:07.186Z,36.10
2017-04-09T10:47:07.113Z,36.60
2017-04-09T10:49:07.164Z,36.40
2017-04-09T10:50:07.110Z,36.70
2017-04-09T10:51:07.148Z,36.50
2017-04-09T10:52:07.908Z,36.50
2017-04-09T10:53:07.860Z,36.20
2017-04-09T10:54:07.856Z,36.00
2017-04-09T10:55:07.864Z,36.00
2017-04-09T10:56:07.784Z,35.70
2017-04-09T10:57:08.472Z,35.80
2017-04-09T10:58:08.431Z,35.80
2017-04-09T10:59:09.196Z,35.40
2017-04-09T11:00:09.143Z,35.20
2017-04-09T11:01:09.129Z,35.10
2017-04-09T11:02:09.103Z,35.40
2017-04-09T11:03:09.011Z,35.60
2017-04-09T11:04:08.994Z,36.10
2017-04-09T11:05:09.692Z,36.50
2017-04-09T11:06:11.231Z,35.60
2017-04-09T11:08:11.238Z,34.30
2017-04-09T11:09:11.203Z,34.30
2017-04-09T11:10:11.136Z,33.80
2017-04-09T11:11:11.087Z,34.10
2017-04-09T11:12:11.759Z,34.50
2017-04-09T11:13:11.674Z,35.00
2017-04-09T11:14:11.652Z,35.30
2017-04-09T11:15:11.548Z,36.00
2017-04-09T11:16:11.488Z,36.60
2017-04-09T11:17:11.697Z,36.50
2017-04-09T11:18:11.657Z,36.40
2017-04-09T11:19:11.607Z,36.10
2017-04-09T11:20:11.559Z,36.10
2017-04-09T11:21:11.476Z,36.20
2017-04-09T11:22:11.400Z,36.10
2017-04-09T11:23:11.332Z,36.10
2017-04-09T11:24:11.355Z,35.80
2017-04-09T11:25:12.032Z,36.00
2017-04-09T11:26:11.935Z,36.00
2017-04-09T11:27:11.867Z,36.30
2017-04-09T11:28:11.823Z,35.20
2017-04-09T11:29:11.698Z,34.70
2017-04-09T11:30:12.405Z,35.10
2017-04-09T11:31:12.310Z,35.30
2017-04-09T11:32:12.220Z,35.40
2017-04-09T11:33:12.150Z,35.60
2017-04-09T11:34:12.056Z,35.40
2017-04-09T11:35:11.992Z,35.50
2017-04-09T11:36:11.906Z,35.50
2017-04-09T11:37:11.842Z,35.70
2017-04-09T11:38:11.764Z,35.80
2017-04-09T11:39:12.428Z,35.80
2017-04-09T11:40:12.380Z,35.60
2017-04-09T11:41:13.141Z,35.60
2017-04-09T11:42:13.063Z,36.00
2017-04-09T11:43:13.042Z,36.40
2017-04-09T11:44:12.953Z,36.80
2017-04-09T11:45:12.904Z,36.80
2017-04-09T11:46:12.804Z,36.80
2017-04-09T11:47:12.708Z,37.30
2017-04-09T11:48:12.632Z,37.70
2017-04-09T11:49:12.545Z,37.70
2017-04-09T11:50:12.480Z,37.80
2017-04-09T11:51:12.441Z,37.80
2017-04-09T11:52:12.393Z,37.70
2017-04-09T11:53:12.323Z,37.00
2017-04-09T11:54:12.268Z,36.80
2017-04-09T11:55:12.197Z,36.70
2017-04-09T11:56:12.919Z,36.60
2017-04-09T11:57:12.835Z,36.80
2017-04-09T11:58:12.796Z,36.90
2017-04-09T11:59:12.722Z,37.10
2017-04-09T12:00:12.664Z,37.10
2017-04-09T12:01:12.599Z,37.40
2017-04-09T12:02:12.568Z,37.80
2017-04-09T12:03:12.506Z,37.90
2017-04-09T12:04:12.453Z,37.80
2017-04-09T12:05:13.116Z,37.50
2017-04-09T12:06:13.071Z,37.50
2017-04-09T12:07:14.127Z,36.70
2017-04-09T12:08:14.047Z,36.80
2017-04-09T12:09:14.056Z,37.20
2017-04-09T12:10:14.116Z,37.50
2017-04-09T12:11:14.820Z,37.60
2017-04-09T12:12:14.792Z,37.80
2017-04-09T12:13:14.992Z,37.40
2017-04-09T12:14:15.049Z,37.10
2017-04-09T12:15:15.089Z,37.30
2017-04-09T12:17:16.213Z,36.90
2017-04-09T12:19:16.309Z,37.30
2017-04-09T12:20:16.276Z,37.20
2017-04-09T12:21:16.227Z,37.60
2017-04-09T12:22:16.163Z,38.10
2017-04-09T12:23:17.252Z,38.50
2017-04-09T12:24:17.210Z,38.50
2017-04-09T12:25:18.447Z,37.50
2017-04-09T12:26:19.120Z,36.80
2017-04-09T12:27:19.043Z,37.30
2017-04-09T12:28:19.715Z,37.50
2017-04-09T12:29:19.640Z,37.50
2017-04-09T12:30:19.580Z,37.70
2017-04-09T12:31:19.536Z,36.90
2017-04-09T12:32:19.506Z,36.40
2017-04-09T12:33:20.165Z,35.80
2017-04-09T12:34:20.093Z,35.90
2017-04-09T12:35:20.043Z,36.00
2017-04-09T12:36:19.972Z,36.70
2017-04-09T12:37:20.010Z,36.80
2017-04-09T12:38:20.013Z,37.20
2017-04-09T12:39:20.173Z,36.50
2017-04-09T12:40:20.126Z,36.70
2017-04-09T12:41:20.068Z,36.80
2017-04-09T12:42:20.736Z,37.10
2017-04-09T12:43:20.654Z,37.10
2017-04-09T12:44:20.582Z,37.10
2017-04-09T12:45:20.508Z,37.10
2017-04-09T12:46:21.249Z,36.80
2017-04-09T12:47:21.234Z,37.10
2017-04-09T12:48:21.941Z,37.30
2017-04-09T12:49:21.897Z,37.40
2017-04-09T12:50:21.884Z,37.80
2017-04-09T12:51:22.570Z,38.30
2017-04-09T12:52:22.528Z,38.90
2017-04-09T12:53:22.508Z,38.60
2017-04-09T12:54:23.170Z,38.00
2017-04-09T12:55:23.126Z,38.00
2017-04-09T12:56:23.050Z,38.00
2017-04-09T12:57:23.749Z,38.00
2017-04-09T12:58:24.411Z,38.10
2017-04-09T12:59:24.362Z,37.90
2017-04-09T13:00:24.360Z,37.80
2017-04-09T13:01:24.300Z,37.00
2017-04-09T13:02:25.235Z,36.30
2017-04-09T13:03:26.053Z,35.80
2017-04-09T13:05:26.835Z,36.30
2017-04-09T13:06:26.792Z,36.10
2017-04-09T13:07:27.522Z,36.40
2017-04-09T13:08:27.494Z,37.00
2017-04-09T13:09:28.095Z,37.40
2017-04-09T13:10:28.028Z,37.60
2017-04-09T13:11:27.975Z,37.90
2017-04-09T13:12:27.967Z,38.10
2017-04-09T13:13:27.990Z,37.90
2017-04-09T13:14:27.946Z,37.70
2017-04-09T13:15:28.543Z,37.90
2017-04-09T13:16:28.459Z,38.20
2017-04-09T13:17:28.425Z,38.20
2017-04-09T13:18:28.349Z,38.20
2017-04-09T13:19:28.605Z,37.90
2017-04-09T13:20:28.532Z,37.70
2017-04-09T13:21:29.235Z,37.60
2017-04-09T13:22:29.227Z,37.70
2017-04-09T13:23:29.179Z,37.30
2017-04-09T13:24:29.872Z,37.10
2017-04-09T13:25:30.580Z,37.00
2017-04-09T13:26:30.566Z,36.90
2017-04-09T13:27:30.536Z,37.10
2017-04-09T13:28:30.483Z,37.40
2017-04-09T13:29:30.445Z,37.30
2017-04-09T13:30:30.395Z,37.60
2017-04-09T13:31:30.343Z,38.10
2017-04-09T13:32:31.106Z,37.80
2017-04-09T13:33:31.050Z,37.90
2017-04-09T13:34:30.996Z,38.40
2017-04-09T13:35:30.944Z,38.30
2017-04-09T13:36:30.883Z,38.20
2017-04-09T13:37:31.632Z,38.50
2017-04-09T13:38:31.583Z,39.00
2017-04-09T13:39:31.544Z,38.70
2017-04-09T13:40:31.519Z,39.00
2017-04-09T13:41:32.195Z,38.70